CST,Max TemperatureF,Mean TemperatureF,Min TemperatureF,Max Dew PointF,MeanDew PointF,Min DewpointF,Max Humidity, Mean Humidity, Min Humidity, Max Sea Level PressureIn, Mean Sea Level PressureIn, Min Sea Level PressureIn, Max VisibilityMiles, Mean VisibilityMiles, Min VisibilityMiles, Max Wind SpeedMPH, Mean Wind SpeedMPH, Max Gust SpeedMPH,PrecipitationIn, CloudCover, Events, WindDirDegrees
2013-1-1,11,-2,-15,5,-6,-21,89,73,50,30.20,30.13,30.05,10,10,10,12,3,18,0.00,2,Snow,262
2013-1-2,19,15,11,11,8,5,89,72,58,30.05,30.01,29.97,10,10,7,12,6,,0.00,8,Snow,190
2013-1-3,20,14,7,15,11,3,85,81,76,30.14,30.08,29.99,10,7,3,14,7,22,0.00,7,Snow,273
2013-1-4,28,16,4,15,10,1,95,78,57,30.14,30.04,29.97,10,10,10,13,8,21,0.00,0,,252
2013-1-5,31,15,-1,22,11,-5,93,79,61,30.14,29.96,29.83,10,10,7,14,4,18,0.00,2,,223
2013-1-6,28,16,3,20,15,1,95,81,66,30.20,30.07,29.85,10,9,2,10,6,17,0.00,5,Snow,289
2013-1-7,36,20,5,22,16,3,94,75,54,30.17,29.99,29.89,10,10,7,21,8,29,0.00,0,,216
2013-1-8,35,21,7,28,19,4,98,85,65,30.04,29.96,29.82,10,7,0,15,3,21,0.00,4,Fog,159
2013-1-9,35,24,14,28,21,13,92,72,53,30.40,30.11,29.81,10,10,10,21,12,31,0.00,2,,259
2013-1-10,33,22,11,32,21,10,99,83,57,30.44,30.23,29.86,10,8,2,15,4,23,0.19,2,Rain,112
2013-1-11,39,36,32,40,35,32,100,100,99,29.84,29.64,29.51,10,2,0,10,6,,0.00,8,Fog-Rain-Snow,147
2013-1-12,42,28,13,39,21,6,100,77,63,29.99,29.75,29.49,10,9,2,26,12,33,0.00,6,Snow,242
2013-1-13,13,8,4,6,3,-2,78,71,65,30.16,30.00,29.91,10,9,3,17,7,24,0.00,7,Snow,282
2013-1-14,14,8,1,6,2,-2,92,76,65,30.37,30.31,30.16,10,10,7,15,6,21,0.00,2,Snow,253
2013-1-15,27,13,-1,11,6,-6,89,71,49,30.35,30.19,29.96,10,10,10,16,4,21,0.00,1,,208
2013-1-16,30,22,14,25,15,4,86,74,49,30.08,29.81,29.66,10,10,2,16,10,25,0.00,5,Snow,255
2013-1-17,16,8,0,4,0,-6,86,63,50,30.34,30.25,30.09,10,10,10,13,7,21,0.00,4,,295
2013-1-18,39,20,0,29,17,-4,91,79,62,30.34,29.95,29.72,10,9,1,18,5,23,0.01,3,Snow,196
2013-1-19,40,22,4,30,21,-7,92,75,53,29.93,29.71,29.57,10,10,3,25,8,48,0.00,5,Snow,257
2013-1-20,7,3,-1,-6,-9,-10,69,59,47,30.25,30.16,29.94,10,10,7,20,11,30,0.00,3,,293
2013-1-21,1,-5,-11,-6,-17,-21,78,62,52,30.22,30.14,30.08,10,9,2,16,8,25,0.00,4,,293
2013-1-22,-1,-7,-13,-13,-17,-20,80,65,53,30.28,30.25,30.20,10,10,10,10,5,17,0.00,0,,282
2013-1-23,11,0,-10,7,-5,-16,83,71,54,30.42,30.17,30.03,10,8,1,23,5,28,0.00,5,Snow,288
2013-1-24,7,0,-8,3,-8,-13,84,68,50,30.61,30.49,30.29,10,10,1,8,3,,0.00,2,Snow,103
2013-1-25,17,12,7,12,8,2,88,81,66,30.28,30.03,29.87,10,6,1,10,7,17,0.00,6,Snow,237
2013-1-26,18,5,-8,10,3,-12,90,74,57,30.34,30.27,30.17,10,10,10,9,3,,0.00,2,,170
2013-1-27,29,24,18,29,19,10,97,80,66,30.26,30.08,29.83,10,6,0,13,7,20,0.12,7,Snow,134
2013-1-28,30,29,28,30,28,27,100,94,86,29.91,29.85,29.76,10,7,2,12,3,,0.01,8,,158
2013-1-29,38,34,29,39,32,28,100,97,90,29.74,29.56,29.48,10,4,0,12,7,17,0.15,8,Fog-Rain-Snow,12
2013-1-30,30,20,11,29,19,6,94,88,78,29.55,29.44,29.35,10,3,0,15,9,24,0.13,8,Snow,330
2013-1-31,10,4,-2,6,-2,-8,82,72,64,30.06,29.79,29.55,10,8,1,15,10,24,0.00,6,Snow,283